sensor_id;sensor_type;location;lat;lon;timestamp;temperature;humidity
22968;DHT22;11650;48.106;-1.696;2023-09-30T00:00:26;14.40;99.90
22968;DHT22;11650;48.106;-1.696;2023-09-30T00:02:52;14.40;99.90
22968;DHT22;11650;48.106;-1.696;2023-09-30T00:05:17;14.40;99.90
22968;DHT22;11650;48.106;-1.696;2023-09-30T00:07:45;14.30;99.90
22968;DHT22;11650;48.106;-1.696;2023-09-30T00:10:11;14.40;99.90
22968;DHT22;11650;48.106;-1.696;2023-09-30T00:12:37;14.30;99.90
22968;DHT22;11650;48.106;-1.696;2023-09-30T00:15:03;14.20;99.90
22968;DHT22;11650;48.106;-1.696;2023-09-30T00:17:29;14.10;99.90
22968;DHT22;11650;48.106;-1.696;2023-09-30T00:19:55;14.10;99.90
22968;DHT22;11650;48.106;-1.696;2023-09-30T00:22:21;14.00;99.90
22968;DHT22;11650;48.106;-1.696;2023-09-30T00:24:46;14.00;99.90
22968;DHT22;11650;48.106;-1.696;2023-09-30T00:27:12;14.10;99.90
22968;DHT22;11650;48.106;-1.696;2023-09-30T00:29:38;14.00;99.90
22968;DHT22;11650;48.106;-1.696;2023-09-30T00:32:04;14.10;99.90
22968;DHT22;11650;48.106;-1.696;2023-09-30T00:34:33;14.10;99.90
22968;DHT22;11650;48.106;-1.696;2023-09-30T00:36:58;14.00;99.90
22968;DHT22;11650;48.106;-1.696;2023-09-30T00:39:24;14.10;99.90
22968;DHT22;11650;48.106;-1.696;2023-09-30T00:41:52;14.10;99.90
22968;DHT22;11650;48.106;-1.696;2023-09-30T00:44:19;14.10;99.90
22968;DHT22;11650;48.106;-1.696;2023-09-30T00:46:45;14.10;99.90
22968;DHT22;11650;48.106;-1.696;2023-09-30T00:49:13;14.20;99.90
22968;DHT22;11650;48.106;-1.696;2023-09-30T00:51:39;14.10;99.90
22968;DHT22;11650;48.106;-1.696;2023-09-30T00:54:05;14.20;99.90
22968;DHT22;11650;48.106;-1.696;2023-09-30T00:56:32;14.20;99.90
22968;DHT22;11650;48.106;-1.696;2023-09-30T00:58:59;14.10;99.90
22968;DHT22;11650;48.106;-1.696;2023-09-30T01:01:25;14.10;99.90
22968;DHT22;11650;48.106;-1.696;2023-09-30T01:03:51;14.20;99.90
22968;DHT22;11650;48.106;-1.696;2023-09-30T01:06:17;14.20;99.90
22968;DHT22;11650;48.106;-1.696;2023-09-30T01:08:43;14.20;99.90
22968;DHT22;11650;48.106;-1.696;2023-09-30T01:11:09;14.20;99.90
22968;DHT22;11650;48.106;-1.696;2023-09-30T01:13:36;14.20;99.90
22968;DHT22;11650;48.106;-1.696;2023-09-30T01:16:04;14.20;99.90
22968;DHT22;11650;48.106;-1.696;2023-09-30T01:18:30;14.20;99.90
22968;DHT22;11650;48.106;-1.696;2023-09-30T01:20:57;14.10;99.90
22968;DHT22;11650;48.106;-1.696;2023-09-30T01:23:23;14.20;99.90
22968;DHT22;11650;48.106;-1.696;2023-09-30T01:25:49;14.20;99.90
22968;DHT22;11650;48.106;-1.696;2023-09-30T01:28:15;14.20;99.90
22968;DHT22;11650;48.106;-1.696;2023-09-30T01:30:42;14.30;99.90
22968;DHT22;11650;48.106;-1.696;2023-09-30T01:33:10;14.20;99.90
22968;DHT22;11650;48.106;-1.696;2023-09-30T01:35:35;14.20;99.90
22968;DHT22;11650;48.106;-1.696;2023-09-30T01:38:01;14.20;99.90
22968;DHT22;11650;48.106;-1.696;2023-09-30T01:40:27;14.20;99.90
22968;DHT22;11650;48.106;-1.696;2023-09-30T01:42:52;14.20;99.90
22968;DHT22;11650;48.106;-1.696;2023-09-30T01:45:18;14.30;99.90
22968;DHT22;11650;48.106;-1.696;2023-09-30T01:47:44;14.40;99.90
22968;DHT22;11650;48.106;-1.696;2023-09-30T01:50:09;14.30;99.90
22968;DHT22;11650;48.106;-1.696;2023-09-30T01:52:36;14.30;99.90
22968;DHT22;11650;48.106;-1.696;2023-09-30T01:55:01;14.30;99.90
22968;DHT22;11650;48.106;-1.696;2023-09-30T01:57:27;14.30;99.90
22968;DHT22;11650;48.106;-1.696;2023-09-30T01:59:52;14.30;99.90
22968;DHT22;11650;48.106;-1.696;2023-09-30T02:02:18;14.20;99.90
22968;DHT22;11650;48.106;-1.696;2023-09-30T02:04:44;14.20;99.90
22968;DHT22;11650;48.106;-1.696;2023-09-30T02:07:09;14.20;99.90
22968;DHT22;11650;48.106;-1.696;2023-09-30T02:09:35;14.20;99.90
22968;DHT22;11650;48.106;-1.696;2023-09-30T02:12:02;14.20;99.90
22968;DHT22;11650;48.106;-1.696;2023-09-30T02:14:27;14.20;99.90
22968;DHT22;11650;48.106;-1.696;2023-09-30T02:16:53;14.20;99.90
22968;DHT22;11650;48.106;-1.696;2023-09-30T02:19:19;14.20;99.90
22968;DHT22;11650;48.106;-1.696;2023-09-30T02:21:47;14.20;99.90
22968;DHT22;11650;48.106;-1.696;2023-09-30T02:24:14;14.10;99.90
22968;DHT22;11650;48.106;-1.696;2023-09-30T02:26:40;14.10;99.90
22968;DHT22;11650;48.106;-1.696;2023-09-30T02:29:06;14.10;99.90
22968;DHT22;11650;48.106;-1.696;2023-09-30T02:31:33;14.00;99.90
22968;DHT22;11650;48.106;-1.696;2023-09-30T02:33:59;14.00;99.90
22968;DHT22;11650;48.106;-1.696;2023-09-30T02:36:24;14.00;99.90
22968;DHT22;11650;48.106;-1.696;2023-09-30T02:38:50;14.00;99.90
22968;DHT22;11650;48.106;-1.696;2023-09-30T02:41:16;14.10;99.90
22968;DHT22;11650;48.106;-1.696;2023-09-30T02:43:42;14.00;99.90
22968;DHT22;11650;48.106;-1.696;2023-09-30T02:46:08;14.00;99.90
22968;DHT22;11650;48.106;-1.696;2023-09-30T02:48:34;13.90;99.90
22968;DHT22;11650;48.106;-1.696;2023-09-30T02:50:59;13.90;99.90
22968;DHT22;11650;48.106;-1.696;2023-09-30T02:53:25;13.90;99.90
22968;DHT22;11650;48.106;-1.696;2023-09-30T02:55:51;13.90;99.90
22968;DHT22;11650;48.106;-1.696;2023-09-30T02:58:22;13.80;99.90
22968;DHT22;11650;48.106;-1.696;2023-09-30T03:00:50;13.70;99.90
22968;DHT22;11650;48.106;-1.696;2023-09-30T03:03:16;13.70;99.90
22968;DHT22;11650;48.106;-1.696;2023-09-30T03:05:41;13.70;99.90
22968;DHT22;11650;48.106;-1.696;2023-09-30T03:08:07;13.60;99.90
22968;DHT22;11650;48.106;-1.696;2023-09-30T03:10:33;13.60;99.90
22968;DHT22;11650;48.106;-1.696;2023-09-30T03:12:59;13.50;99.90
22968;DHT22;11650;48.106;-1.696;2023-09-30T03:15:28;13.50;99.90
22968;DHT22;11650;48.106;-1.696;2023-09-30T03:17:56;13.50;99.90
22968;DHT22;11650;48.106;-1.696;2023-09-30T03:20:22;13.40;99.90
22968;DHT22;11650;48.106;-1.696;2023-09-30T03:22:51;13.40;99.90
22968;DHT22;11650;48.106;-1.696;2023-09-30T03:25:18;13.40;99.90
22968;DHT22;11650;48.106;-1.696;2023-09-30T03:27:48;13.40;99.90
22968;DHT22;11650;48.106;-1.696;2023-09-30T03:30:14;13.40;99.90
22968;DHT22;11650;48.106;-1.696;2023-09-30T03:32:41;13.40;99.90
22968;DHT22;11650;48.106;-1.696;2023-09-30T03:35:11;13.50;99.90
22968;DHT22;11650;48.106;-1.696;2023-09-30T03:37:45;13.50;99.90
22968;DHT22;11650;48.106;-1.696;2023-09-30T03:40:13;13.40;99.90
22968;DHT22;11650;48.106;-1.696;2023-09-30T03:42:43;13.40;99.90
22968;DHT22;11650;48.106;-1.696;2023-09-30T03:45:09;13.30;99.90
22968;DHT22;11650;48.106;-1.696;2023-09-30T03:47:39;13.30;99.90
22968;DHT22;11650;48.106;-1.696;2023-09-30T03:50:05;13.20;99.90
22968;DHT22;11650;48.106;-1.696;2023-09-30T03:52:38;13.20;99.90
22968;DHT22;11650;48.106;-1.696;2023-09-30T03:55:04;13.10;99.90
22968;DHT22;11650;48.106;-1.696;2023-09-30T03:57:34;13.10;99.90
22968;DHT22;11650;48.106;-1.696;2023-09-30T04:00:00;13.00;99.90
22968;DHT22;11650;48.106;-1.696;2023-09-30T04:02:26;13.00;99.90
22968;DHT22;11650;48.106;-1.696;2023-09-30T04:04:52;13.00;99.90
22968;DHT22;11650;48.106;-1.696;2023-09-30T04:07:21;13.00;99.90
22968;DHT22;11650;48.106;-1.696;2023-09-30T04:09:47;13.00;99.90
22968;DHT22;11650;48.106;-1.696;2023-09-30T04:12:12;12.90;99.90
22968;DHT22;11650;48.106;-1.696;2023-09-30T04:14:38;12.90;99.90
22968;DHT22;11650;48.106;-1.696;2023-09-30T04:17:04;12.90;99.90
22968;DHT22;11650;48.106;-1.696;2023-09-30T04:19:30;12.90;99.90
22968;DHT22;11650;48.106;-1.696;2023-09-30T04:21:56;12.80;99.90
22968;DHT22;11650;48.106;-1.696;2023-09-30T04:24:22;12.80;99.90
22968;DHT22;11650;48.106;-1.696;2023-09-30T04:26:48;12.80;99.90
22968;DHT22;11650;48.106;-1.696;2023-09-30T04:29:16;12.90;99.90
22968;DHT22;11650;48.106;-1.696;2023-09-30T04:31:41;12.90;99.90
22968;DHT22;11650;48.106;-1.696;2023-09-30T04:34:07;12.90;99.90
22968;DHT22;11650;48.106;-1.696;2023-09-30T04:36:33;12.90;99.90
22968;DHT22;11650;48.106;-1.696;2023-09-30T04:39:01;13.00;99.90
22968;DHT22;11650;48.106;-1.696;2023-09-30T04:41:28;13.00;99.90
22968;DHT22;11650;48.106;-1.696;2023-09-30T04:43:54;13.00;99.90
22968;DHT22;11650;48.106;-1.696;2023-09-30T04:46:19;13.00;99.90
22968;DHT22;11650;48.106;-1.696;2023-09-30T04:48:49;13.00;99.90
22968;DHT22;11650;48.106;-1.696;2023-09-30T04:51:17;13.00;99.90
22968;DHT22;11650;48.106;-1.696;2023-09-30T04:53:44;13.10;99.90
22968;DHT22;11650;48.106;-1.696;2023-09-30T04:56:13;13.10;99.90
22968;DHT22;11650;48.106;-1.696;2023-09-30T04:58:38;13.10;99.90
22968;DHT22;11650;48.106;-1.696;2023-09-30T05:01:04;13.20;99.90
22968;DHT22;11650;48.106;-1.696;2023-09-30T05:03:29;13.20;99.90
22968;DHT22;11650;48.106;-1.696;2023-09-30T05:05:55;13.10;99.90
22968;DHT22;11650;48.106;-1.696;2023-09-30T05:08:23;13.10;99.90
22968;DHT22;11650;48.106;-1.696;2023-09-30T05:10:49;13.20;99.90
22968;DHT22;11650;48.106;-1.696;2023-09-30T05:13:15;13.20;99.90
22968;DHT22;11650;48.106;-1.696;2023-09-30T05:15:41;13.10;99.90
22968;DHT22;11650;48.106;-1.696;2023-09-30T05:18:07;13.10;99.90
22968;DHT22;11650;48.106;-1.696;2023-09-30T05:20:35;13.10;99.90
22968;DHT22;11650;48.106;-1.696;2023-09-30T05:23:02;13.00;99.90
22968;DHT22;11650;48.106;-1.696;2023-09-30T05:25:28;13.00;99.90
22968;DHT22;11650;48.106;-1.696;2023-09-30T05:27:54;13.00;99.90
22968;DHT22;11650;48.106;-1.696;2023-09-30T05:30:20;13.10;99.90
22968;DHT22;11650;48.106;-1.696;2023-09-30T05:32:46;13.10;99.90
22968;DHT22;11650;48.106;-1.696;2023-09-30T05:35:12;13.10;99.90
22968;DHT22;11650;48.106;-1.696;2023-09-30T05:37:43;13.10;99.90
22968;DHT22;11650;48.106;-1.696;2023-09-30T05:40:10;13.10;99.90
22968;DHT22;11650;48.106;-1.696;2023-09-30T05:42:47;13.10;99.90
22968;DHT22;11650;48.106;-1.696;2023-09-30T05:45:14;13.10;99.90
22968;DHT22;11650;48.106;-1.696;2023-09-30T05:47:41;13.10;99.90
22968;DHT22;11650;48.106;-1.696;2023-09-30T05:50:07;13.00;99.90
22968;DHT22;11650;48.106;-1.696;2023-09-30T05:52:34;13.00;99.90
22968;DHT22;11650;48.106;-1.696;2023-09-30T05:55:02;13.00;99.90
22968;DHT22;11650;48.106;-1.696;2023-09-30T05:57:28;13.00;99.90
22968;DHT22;11650;48.106;-1.696;2023-09-30T05:59:54;12.90;99.90
22968;DHT22;11650;48.106;-1.696;2023-09-30T06:02:19;12.90;99.90
22968;DHT22;11650;48.106;-1.696;2023-09-30T06:04:45;12.80;99.90
22968;DHT22;11650;48.106;-1.696;2023-09-30T06:07:12;12.80;99.90
22968;DHT22;11650;48.106;-1.696;2023-09-30T06:09:38;12.70;99.90
22968;DHT22;11650;48.106;-1.696;2023-09-30T06:12:03;12.70;99.90
22968;DHT22;11650;48.106;-1.696;2023-09-30T06:14:35;12.70;99.90
22968;DHT22;11650;48.106;-1.696;2023-09-30T06:17:00;12.70;99.90
22968;DHT22;11650;48.106;-1.696;2023-09-30T06:19:27;12.80;99.90
22968;DHT22;11650;48.106;-1.696;2023-09-30T06:21:52;12.80;99.90
22968;DHT22;11650;48.106;-1.696;2023-09-30T06:24:18;12.80;99.90
22968;DHT22;11650;48.106;-1.696;2023-09-30T06:26:45;12.80;99.90
22968;DHT22;11650;48.106;-1.696;2023-09-30T06:29:11;12.80;99.90
22968;DHT22;11650;48.106;-1.696;2023-09-30T06:31:37;12.80;99.90
22968;DHT22;11650;48.106;-1.696;2023-09-30T06:34:02;12.80;99.90
22968;DHT22;11650;48.106;-1.696;2023-09-30T06:36:29;12.80;99.90
22968;DHT22;11650;48.106;-1.696;2023-09-30T06:38:55;12.80;99.90
22968;DHT22;11650;48.106;-1.696;2023-09-30T06:41:21;12.90;99.90
22968;DHT22;11650;48.106;-1.696;2023-09-30T06:43:47;12.90;99.90
22968;DHT22;11650;48.106;-1.696;2023-09-30T06:46:12;12.90;99.90
22968;DHT22;11650;48.106;-1.696;2023-09-30T06:48:38;12.90;99.90
22968;DHT22;11650;48.106;-1.696;2023-09-30T06:51:06;13.00;99.90
22968;DHT22;11650;48.106;-1.696;2023-09-30T06:53:31;13.00;99.90
22968;DHT22;11650;48.106;-1.696;2023-09-30T06:55:57;13.00;99.90
22968;DHT22;11650;48.106;-1.696;2023-09-30T06:58:23;13.10;99.90
22968;DHT22;11650;48.106;-1.696;2023-09-30T07:00:52;13.10;99.90
22968;DHT22;11650;48.106;-1.696;2023-09-30T07:03:18;13.20;99.90
22968;DHT22;11650;48.106;-1.696;2023-09-30T07:05:47;13.20;99.90
22968;DHT22;11650;48.106;-1.696;2023-09-30T07:08:16;13.20;99.90
22968;DHT22;11650;48.106;-1.696;2023-09-30T07:10:42;13.30;99.90
22968;DHT22;11650;48.106;-1.696;2023-09-30T07:13:09;13.30;99.90
22968;DHT22;11650;48.106;-1.696;2023-09-30T07:15:34;13.40;99.90
22968;DHT22;11650;48.106;-1.696;2023-09-30T07:18:00;13.50;99.90
22968;DHT22;11650;48.106;-1.696;2023-09-30T07:20:26;13.60;99.90
22968;DHT22;11650;48.106;-1.696;2023-09-30T07:22:51;13.60;99.90
22968;DHT22;11650;48.106;-1.696;2023-09-30T07:25:18;13.60;99.90
22968;DHT22;11650;48.106;-1.696;2023-09-30T07:27:44;13.70;99.90
22968;DHT22;11650;48.106;-1.696;2023-09-30T07:30:11;13.80;99.90
22968;DHT22;11650;48.106;-1.696;2023-09-30T07:32:38;13.80;99.90
22968;DHT22;11650;48.106;-1.696;2023-09-30T07:35:04;13.90;99.90
22968;DHT22;11650;48.106;-1.696;2023-09-30T07:37:30;13.90;99.90
22968;DHT22;11650;48.106;-1.696;2023-09-30T07:39:56;13.90;99.90
22968;DHT22;11650;48.106;-1.696;2023-09-30T07:42:22;13.90;99.90
22968;DHT22;11650;48.106;-1.696;2023-09-30T07:44:48;14.00;99.90
22968;DHT22;11650;48.106;-1.696;2023-09-30T07:47:14;14.10;99.90
22968;DHT22;11650;48.106;-1.696;2023-09-30T07:49:40;14.10;99.90
22968;DHT22;11650;48.106;-1.696;2023-09-30T07:52:06;14.20;99.90
22968;DHT22;11650;48.106;-1.696;2023-09-30T07:54:31;14.20;99.90
22968;DHT22;11650;48.106;-1.696;2023-09-30T07:56:57;14.30;99.90
22968;DHT22;11650;48.106;-1.696;2023-09-30T07:59:24;14.40;99.90
22968;DHT22;11650;48.106;-1.696;2023-09-30T08:01:51;14.60;99.90
22968;DHT22;11650;48.106;-1.696;2023-09-30T08:04:18;14.70;99.90
22968;DHT22;11650;48.106;-1.696;2023-09-30T08:06:44;14.80;99.90
22968;DHT22;11650;48.106;-1.696;2023-09-30T08:09:12;14.70;99.90
22968;DHT22;11650;48.106;-1.696;2023-09-30T08:11:38;14.80;99.90
22968;DHT22;11650;48.106;-1.696;2023-09-30T08:14:04;15.00;99.90
22968;DHT22;11650;48.106;-1.696;2023-09-30T08:16:38;15.10;99.90
22968;DHT22;11650;48.106;-1.696;2023-09-30T08:19:04;15.00;99.90
22968;DHT22;11650;48.106;-1.696;2023-09-30T08:21:30;15.20;99.90
22968;DHT22;11650;48.106;-1.696;2023-09-30T08:23:57;15.20;99.90
22968;DHT22;11650;48.106;-1.696;2023-09-30T08:26:22;15.30;99.90
22968;DHT22;11650;48.106;-1.696;2023-09-30T08:28:48;15.40;99.90
22968;DHT22;11650;48.106;-1.696;2023-09-30T08:31:14;15.50;99.90
22968;DHT22;11650;48.106;-1.696;2023-09-30T08:33:40;15.50;99.90
22968;DHT22;11650;48.106;-1.696;2023-09-30T08:36:08;15.70;99.90
22968;DHT22;11650;48.106;-1.696;2023-09-30T08:38:39;15.80;99.90
22968;DHT22;11650;48.106;-1.696;2023-09-30T08:41:05;15.90;99.90
22968;DHT22;11650;48.106;-1.696;2023-09-30T08:43:39;15.80;99.90
22968;DHT22;11650;48.106;-1.696;2023-09-30T08:46:06;15.90;99.90
22968;DHT22;11650;48.106;-1.696;2023-09-30T08:48:32;15.90;99.90
22968;DHT22;11650;48.106;-1.696;2023-09-30T08:50:59;16.10;99.90
22968;DHT22;11650;48.106;-1.696;2023-09-30T08:53:26;16.20;99.90
22968;DHT22;11650;48.106;-1.696;2023-09-30T08:55:56;16.30;99.90
22968;DHT22;11650;48.106;-1.696;2023-09-30T08:58:26;16.40;99.90
22968;DHT22;11650;48.106;-1.696;2023-09-30T09:00:52;16.30;99.90
22968;DHT22;11650;48.106;-1.696;2023-09-30T09:03:19;16.30;99.90
22968;DHT22;11650;48.106;-1.696;2023-09-30T09:05:46;16.40;99.90
22968;DHT22;11650;48.106;-1.696;2023-09-30T09:08:12;16.50;99.90
22968;DHT22;11650;48.106;-1.696;2023-09-30T09:10:59;16.60;99.90
22968;DHT22;11650;48.106;-1.696;2023-09-30T09:13:44;16.70;99.90
22968;DHT22;11650;48.106;-1.696;2023-09-30T09:16:10;16.80;99.90
22968;DHT22;11650;48.106;-1.696;2023-09-30T09:18:37;16.90;99.90
22968;DHT22;11650;48.106;-1.696;2023-09-30T09:21:16;16.90;99.90
22968;DHT22;11650;48.106;-1.696;2023-09-30T09:23:47;17.00;99.90
22968;DHT22;11650;48.106;-1.696;2023-09-30T09:26:33;17.20;99.90
22968;DHT22;11650;48.106;-1.696;2023-09-30T09:29:02;17.20;99.90
22968;DHT22;11650;48.106;-1.696;2023-09-30T09:31:34;17.20;99.90
22968;DHT22;11650;48.106;-1.696;2023-09-30T09:34:01;17.30;99.90
22968;DHT22;11650;48.106;-1.696;2023-09-30T09:36:44;17.40;99.90
22968;DHT22;11650;48.106;-1.696;2023-09-30T09:39:11;17.60;99.90
22968;DHT22;11650;48.106;-1.696;2023-09-30T09:41:52;17.50;99.90
22968;DHT22;11650;48.106;-1.696;2023-09-30T09:44:22;17.60;99.90
22968;DHT22;11650;48.106;-1.696;2023-09-30T09:46:49;17.60;99.90
22968;DHT22;11650;48.106;-1.696;2023-09-30T09:49:18;17.70;99.90
22968;DHT22;11650;48.106;-1.696;2023-09-30T09:51:45;17.80;99.90
22968;DHT22;11650;48.106;-1.696;2023-09-30T09:54:11;18.00;99.90
22968;DHT22;11650;48.106;-1.696;2023-09-30T09:56:42;18.10;99.90
22968;DHT22;11650;48.106;-1.696;2023-09-30T09:59:09;18.00;99.90
22968;DHT22;11650;48.106;-1.696;2023-09-30T10:01:36;18.10;99.90
22968;DHT22;11650;48.106;-1.696;2023-09-30T10:04:05;18.10;99.90
22968;DHT22;11650;48.106;-1.696;2023-09-30T10:06:31;18.00;99.90
22968;DHT22;11650;48.106;-1.696;2023-09-30T10:09:06;18.10;99.90
22968;DHT22;11650;48.106;-1.696;2023-09-30T10:11:33;18.30;99.90
22968;DHT22;11650;48.106;-1.696;2023-09-30T10:13:59;18.40;99.90
22968;DHT22;11650;48.106;-1.696;2023-09-30T10:19:13;18.50;99.90
22968;DHT22;11650;48.106;-1.696;2023-09-30T10:21:39;18.60;99.90
22968;DHT22;11650;48.106;-1.696;2023-09-30T10:30:18;18.70;99.90
22968;DHT22;11650;48.106;-1.696;2023-09-30T10:40:48;19.10;99.90
22968;DHT22;11650;48.106;-1.696;2023-09-30T10:43:32;19.20;99.90
22968;DHT22;11650;48.106;-1.696;2023-09-30T10:45:59;19.30;99.90
22968;DHT22;11650;48.106;-1.696;2023-09-30T10:50:55;19.60;99.90
22968;DHT22;11650;48.106;-1.696;2023-09-30T10:53:22;19.70;99.90
22968;DHT22;11650;48.106;-1.696;2023-09-30T10:55:55;19.70;99.90
22968;DHT22;11650;48.106;-1.696;2023-09-30T10:58:21;19.80;99.90
22968;DHT22;11650;48.106;-1.696;2023-09-30T11:00:56;19.80;99.90
22968;DHT22;11650;48.106;-1.696;2023-09-30T11:03:23;19.70;99.90
22968;DHT22;11650;48.106;-1.696;2023-09-30T11:05:49;20.00;99.90
22968;DHT22;11650;48.106;-1.696;2023-09-30T11:08:17;20.10;99.90
22968;DHT22;11650;48.106;-1.696;2023-09-30T11:10:51;20.30;99.90
22968;DHT22;11650;48.106;-1.696;2023-09-30T11:13:17;20.10;99.90
22968;DHT22;11650;48.106;-1.696;2023-09-30T11:15:46;20.20;99.90
22968;DHT22;11650;48.106;-1.696;2023-09-30T11:18:17;20.40;99.90
22968;DHT22;11650;48.106;-1.696;2023-09-30T11:20:44;20.70;99.90
22968;DHT22;11650;48.106;-1.696;2023-09-30T11:23:10;20.60;99.90
22968;DHT22;11650;48.106;-1.696;2023-09-30T11:25:37;20.50;99.90
22968;DHT22;11650;48.106;-1.696;2023-09-30T11:28:14;20.50;99.90
22968;DHT22;11650;48.106;-1.696;2023-09-30T11:31:00;20.40;99.90
22968;DHT22;11650;48.106;-1.696;2023-09-30T11:33:28;20.40;99.90
22968;DHT22;11650;48.106;-1.696;2023-09-30T11:36:04;20.70;99.90
22968;DHT22;11650;48.106;-1.696;2023-09-30T11:38:32;21.00;99.90
22968;DHT22;11650;48.106;-1.696;2023-09-30T11:41:05;21.00;99.90
22968;DHT22;11650;48.106;-1.696;2023-09-30T11:43:33;21.00;99.90
22968;DHT22;11650;48.106;-1.696;2023-09-30T11:46:11;21.10;99.90
22968;DHT22;11650;48.106;-1.696;2023-09-30T11:48:48;21.30;99.90
22968;DHT22;11650;48.106;-1.696;2023-09-30T11:51:23;21.40;99.90
22968;DHT22;11650;48.106;-1.696;2023-09-30T11:53:53;21.40;99.90
22968;DHT22;11650;48.106;-1.696;2023-09-30T11:56:19;21.40;99.90
22968;DHT22;11650;48.106;-1.696;2023-09-30T11:58:45;21.40;99.90
22968;DHT22;11650;48.106;-1.696;2023-09-30T12:01:14;21.50;99.90
22968;DHT22;11650;48.106;-1.696;2023-09-30T12:03:40;21.70;99.90
22968;DHT22;11650;48.106;-1.696;2023-09-30T12:06:06;22.00;99.90
22968;DHT22;11650;48.106;-1.696;2023-09-30T12:08:32;21.80;99.90
22968;DHT22;11650;48.106;-1.696;2023-09-30T12:10:58;21.70;99.90
22968;DHT22;11650;48.106;-1.696;2023-09-30T12:13:25;21.90;99.90
22968;DHT22;11650;48.106;-1.696;2023-09-30T12:15:51;21.90;99.90
22968;DHT22;11650;48.106;-1.696;2023-09-30T12:18:18;22.20;99.90
22968;DHT22;11650;48.106;-1.696;2023-09-30T12:20:49;22.40;99.90
22968;DHT22;11650;48.106;-1.696;2023-09-30T12:23:15;22.50;99.90
22968;DHT22;11650;48.106;-1.696;2023-09-30T12:25:43;22.70;99.90
22968;DHT22;11650;48.106;-1.696;2023-09-30T12:28:09;22.60;99.90
22968;DHT22;11650;48.106;-1.696;2023-09-30T12:30:35;22.60;99.90
22968;DHT22;11650;48.106;-1.696;2023-09-30T12:33:01;23.10;99.90
22968;DHT22;11650;48.106;-1.696;2023-09-30T12:35:27;23.00;99.90
22968;DHT22;11650;48.106;-1.696;2023-09-30T12:37:52;23.00;99.90
22968;DHT22;11650;48.106;-1.696;2023-09-30T12:40:18;23.60;99.90
22968;DHT22;11650;48.106;-1.696;2023-09-30T12:42:44;24.00;99.90
22968;DHT22;11650;48.106;-1.696;2023-09-30T12:45:11;24.20;99.90
22968;DHT22;11650;48.106;-1.696;2023-09-30T12:47:37;24.70;99.90
22968;DHT22;11650;48.106;-1.696;2023-09-30T12:50:04;25.20;99.90
22968;DHT22;11650;48.106;-1.696;2023-09-30T12:52:30;25.50;99.90
22968;DHT22;11650;48.106;-1.696;2023-09-30T12:54:57;25.90;99.90
22968;DHT22;11650;48.106;-1.696;2023-09-30T12:57:23;26.10;99.90
22968;DHT22;11650;48.106;-1.696;2023-09-30T12:59:49;25.70;99.90
22968;DHT22;11650;48.106;-1.696;2023-09-30T13:02:15;25.30;99.90
22968;DHT22;11650;48.106;-1.696;2023-09-30T13:04:44;25.40;99.90
22968;DHT22;11650;48.106;-1.696;2023-09-30T13:07:10;25.60;99.90
22968;DHT22;11650;48.106;-1.696;2023-09-30T13:09:40;26.10;99.90
22968;DHT22;11650;48.106;-1.696;2023-09-30T13:12:06;26.20;99.90
22968;DHT22;11650;48.106;-1.696;2023-09-30T13:14:32;26.20;99.90
22968;DHT22;11650;48.106;-1.696;2023-09-30T13:16:58;26.70;99.90
22968;DHT22;11650;48.106;-1.696;2023-09-30T13:19:25;27.20;99.90
22968;DHT22;11650;48.106;-1.696;2023-09-30T13:21:51;27.60;99.90
22968;DHT22;11650;48.106;-1.696;2023-09-30T13:24:19;27.30;99.90
22968;DHT22;11650;48.106;-1.696;2023-09-30T13:26:45;27.50;99.90
22968;DHT22;11650;48.106;-1.696;2023-09-30T13:29:11;27.70;99.90
22968;DHT22;11650;48.106;-1.696;2023-09-30T13:31:39;27.90;99.90
22968;DHT22;11650;48.106;-1.696;2023-09-30T13:34:05;28.10;99.90
22968;DHT22;11650;48.106;-1.696;2023-09-30T13:36:31;27.70;99.90
22968;DHT22;11650;48.106;-1.696;2023-09-30T13:38:57;27.80;99.90
22968;DHT22;11650;48.106;-1.696;2023-09-30T13:41:23;28.20;99.90
22968;DHT22;11650;48.106;-1.696;2023-09-30T13:43:48;29.20;99.90
22968;DHT22;11650;48.106;-1.696;2023-09-30T13:46:14;29.40;99.90
22968;DHT22;11650;48.106;-1.696;2023-09-30T13:48:41;29.20;99.90
22968;DHT22;11650;48.106;-1.696;2023-09-30T13:51:08;28.30;99.90
22968;DHT22;11650;48.106;-1.696;2023-09-30T13:53:34;28.30;99.90
22968;DHT22;11650;48.106;-1.696;2023-09-30T13:55:59;28.10;99.90
22968;DHT22;11650;48.106;-1.696;2023-09-30T13:58:25;28.00;99.90
22968;DHT22;11650;48.106;-1.696;2023-09-30T14:00:51;28.00;99.90
22968;DHT22;11650;48.106;-1.696;2023-09-30T14:03:22;28.90;99.90
22968;DHT22;11650;48.106;-1.696;2023-09-30T14:05:50;28.90;99.90
22968;DHT22;11650;48.106;-1.696;2023-09-30T14:08:16;29.50;99.90
22968;DHT22;11650;48.106;-1.696;2023-09-30T14:10:42;29.50;99.90
22968;DHT22;11650;48.106;-1.696;2023-09-30T14:13:09;30.00;99.90
22968;DHT22;11650;48.106;-1.696;2023-09-30T14:15:35;29.60;99.90
22968;DHT22;11650;48.106;-1.696;2023-09-30T14:18:02;29.60;99.90
22968;DHT22;11650;48.106;-1.696;2023-09-30T14:20:28;30.10;99.90
22968;DHT22;11650;48.106;-1.696;2023-09-30T14:22:54;30.40;99.90
22968;DHT22;11650;48.106;-1.696;2023-09-30T14:25:23;30.30;99.90
22968;DHT22;11650;48.106;-1.696;2023-09-30T14:27:49;30.50;99.90
22968;DHT22;11650;48.106;-1.696;2023-09-30T14:30:15;30.80;99.90
22968;DHT22;11650;48.106;-1.696;2023-09-30T14:32:41;30.80;99.90
22968;DHT22;11650;48.106;-1.696;2023-09-30T14:35:08;30.30;99.90
22968;DHT22;11650;48.106;-1.696;2023-09-30T14:37:35;30.40;99.90
22968;DHT22;11650;48.106;-1.696;2023-09-30T14:40:01;31.70;99.90
22968;DHT22;11650;48.106;-1.696;2023-09-30T14:42:30;31.40;99.90
22968;DHT22;11650;48.106;-1.696;2023-09-30T14:44:56;31.20;99.90
22968;DHT22;11650;48.106;-1.696;2023-09-30T14:47:22;31.70;99.90
22968;DHT22;11650;48.106;-1.696;2023-09-30T14:49:48;31.30;99.90
22968;DHT22;11650;48.106;-1.696;2023-09-30T14:52:14;31.60;99.90
22968;DHT22;11650;48.106;-1.696;2023-09-30T14:54:41;31.00;99.90
22968;DHT22;11650;48.106;-1.696;2023-09-30T14:57:07;32.20;99.90
22968;DHT22;11650;48.106;-1.696;2023-09-30T14:59:35;32.90;99.90
22968;DHT22;11650;48.106;-1.696;2023-09-30T15:02:00;32.90;99.90
22968;DHT22;11650;48.106;-1.696;2023-09-30T15:04:26;33.60;99.90
22968;DHT22;11650;48.106;-1.696;2023-09-30T15:06:53;32.60;99.90
22968;DHT22;11650;48.106;-1.696;2023-09-30T15:09:18;32.70;99.90
22968;DHT22;11650;48.106;-1.696;2023-09-30T15:11:44;33.00;99.90
22968;DHT22;11650;48.106;-1.696;2023-09-30T15:14:10;33.00;99.90
22968;DHT22;11650;48.106;-1.696;2023-09-30T15:16:35;32.30;99.90
22968;DHT22;11650;48.106;-1.696;2023-09-30T15:19:01;32.40;99.90
22968;DHT22;11650;48.106;-1.696;2023-09-30T15:21:27;32.00;99.90
22968;DHT22;11650;48.106;-1.696;2023-09-30T15:23:52;31.80;99.90
22968;DHT22;11650;48.106;-1.696;2023-09-30T15:26:18;31.90;99.90
22968;DHT22;11650;48.106;-1.696;2023-09-30T15:28:44;32.50;99.90
22968;DHT22;11650;48.106;-1.696;2023-09-30T15:31:10;32.50;99.90
22968;DHT22;11650;48.106;-1.696;2023-09-30T15:33:36;32.30;99.90